createdAt,value
2023-10-28T00:02:24.549Z,7.10
2023-10-28T00:04:52.268Z,8.68
2023-10-28T00:07:18.787Z,7.95
2023-10-28T00:09:45.334Z,7.20
2023-10-28T00:12:14.399Z,7.40
2023-10-28T00:14:41.779Z,8.70
2023-10-28T00:17:08.284Z,8.38
2023-10-28T00:19:35.185Z,10.40
2023-10-28T00:22:01.590Z,9.98
2023-10-28T00:24:28.457Z,8.18
2023-10-28T00:26:54.893Z,7.18
2023-10-28T00:29:21.425Z,9.98
2023-10-28T00:31:48.978Z,7.90
2023-10-28T00:34:16.323Z,9.05
2023-10-28T00:36:42.800Z,7.50
2023-10-28T00:39:12.028Z,8.32
2023-10-28T00:41:38.635Z,7.97
2023-10-28T00:44:06.133Z,7.40
2023-10-28T00:46:32.732Z,7.40
2023-10-28T00:48:59.229Z,7.75
2023-10-28T00:51:25.660Z,8.95
2023-10-28T00:53:52.814Z,6.13
2023-10-28T00:56:20.194Z,7.05
2023-10-28T00:58:48.059Z,6.03
2023-10-28T01:01:15.313Z,8.18
2023-10-28T01:03:42.128Z,6.07
2023-10-28T01:06:13.417Z,7.32
2023-10-28T01:08:40.299Z,6.93
2023-10-28T01:11:07.099Z,7.65
2023-10-28T01:13:33.563Z,6.93
2023-10-28T01:16:00.890Z,6.28
2023-10-28T01:18:27.827Z,6.65
2023-10-28T01:20:54.371Z,7.38
2023-10-28T01:23:20.937Z,7.72
2023-10-28T01:25:47.408Z,6.60
2023-10-28T01:28:13.853Z,6.57
2023-10-28T01:30:40.285Z,7.82
2023-10-28T01:33:06.812Z,7.43
2023-10-28T01:35:33.294Z,8.60
2023-10-28T01:37:59.765Z,7.10
2023-10-28T01:40:26.876Z,7.13
2023-10-28T01:42:53.262Z,11.40
2023-10-28T01:45:19.755Z,7.28
2023-10-28T01:47:46.246Z,7.30
2023-10-28T01:50:13.405Z,8.55
2023-10-28T01:52:41.640Z,8.45
2023-10-28T01:55:09.088Z,7.38
2023-10-28T01:57:35.862Z,8.63
2023-10-28T02:00:08.267Z,9.20
2023-10-28T02:02:37.781Z,8.68
2023-10-28T02:05:04.591Z,8.32
2023-10-28T02:07:31.049Z,8.35
2023-10-28T02:09:57.492Z,9.02
2023-10-28T02:12:23.979Z,8.05
2023-10-28T02:14:51.850Z,8.18
2023-10-28T02:17:18.889Z,8.05
2023-10-28T02:19:45.768Z,8.45
2023-10-28T02:22:13.841Z,8.60
2023-10-28T02:24:42.713Z,7.35
2023-10-28T02:27:09.817Z,9.88
2023-10-28T02:29:38.562Z,9.43
2023-10-28T02:32:10.052Z,8.00
2023-10-28T02:34:37.658Z,9.65
2023-10-28T02:37:06.197Z,10.88
2023-10-28T02:39:33.097Z,9.77
2023-10-28T02:41:59.601Z,9.30
2023-10-28T02:44:25.972Z,10.55
2023-10-28T02:46:54.058Z,10.25
2023-10-28T02:49:20.603Z,10.68
2023-10-28T02:51:47.032Z,10.70
2023-10-28T02:54:15.335Z,10.98
2023-10-28T02:56:43.064Z,13.07
2023-10-28T02:59:10.867Z,9.38
2023-10-28T03:01:40.978Z,10.88
2023-10-28T03:04:08.458Z,14.27
2023-10-28T03:06:35.028Z,11.07
2023-10-28T03:09:01.437Z,12.45
2023-10-28T03:11:27.942Z,12.07
2023-10-28T03:13:55.768Z,13.25
2023-10-28T03:16:22.340Z,11.85
2023-10-28T03:18:48.799Z,13.18
2023-10-28T03:21:16.492Z,13.32
2023-10-28T03:23:43.661Z,12.00
2023-10-28T03:26:10.400Z,11.32
2023-10-28T03:28:36.830Z,14.93
2023-10-28T03:31:13.704Z,13.15
2023-10-28T03:33:40.896Z,12.23
2023-10-28T03:36:11.262Z,15.73
2023-10-28T03:38:38.707Z,9.85
2023-10-28T03:41:12.615Z,11.98
2023-10-28T03:43:42.389Z,13.90
2023-10-28T03:46:16.539Z,12.73
2023-10-28T03:48:42.924Z,12.70
2023-10-28T03:51:09.287Z,13.00
2023-10-28T03:53:35.664Z,13.68
2023-10-28T03:56:02.045Z,12.48
2023-10-28T03:58:28.497Z,12.75
2023-10-28T04:00:55.343Z,14.00
2023-10-28T04:03:23.040Z,11.35
2023-10-28T04:05:50.623Z,12.38
2023-10-28T04:08:17.384Z,12.55
2023-10-28T04:10:44.105Z,11.65
2023-10-28T04:13:13.239Z,11.57
2023-10-28T04:15:40.728Z,10.60
2023-10-28T04:18:07.161Z,13.52
2023-10-28T04:20:34.918Z,12.52
2023-10-28T04:23:02.256Z,12.73
2023-10-28T04:25:28.659Z,13.68
2023-10-28T04:27:55.030Z,14.02
2023-10-28T04:30:21.845Z,13.52
2023-10-28T04:32:48.256Z,12.93
2023-10-28T04:35:26.448Z,12.80
2023-10-28T04:37:54.293Z,13.35
2023-10-28T04:40:20.727Z,13.23
2023-10-28T04:42:48.282Z,10.43
2023-10-28T04:45:14.991Z,12.52
2023-10-28T04:47:41.397Z,13.93
2023-10-28T04:50:08.116Z,12.43
2023-10-28T04:52:34.519Z,13.30
2023-10-28T04:55:01.070Z,12.63
2023-10-28T04:57:27.448Z,15.27
2023-10-28T04:59:53.870Z,11.95
2023-10-28T05:02:20.285Z,12.77
2023-10-28T05:04:46.753Z,13.35
2023-10-28T05:07:13.179Z,13.23
2023-10-28T05:09:39.928Z,14.90
2023-10-28T05:12:06.449Z,16.63
2023-10-28T05:14:32.843Z,13.23
2023-10-28T05:16:59.245Z,12.20
2023-10-28T05:19:25.834Z,14.40
2023-10-28T05:21:52.312Z,14.20
2023-10-28T05:24:18.689Z,13.68
2023-10-28T05:26:45.185Z,14.85
2023-10-28T05:29:11.606Z,12.95
2023-10-28T05:31:38.371Z,15.43
2023-10-28T05:34:04.795Z,15.82
2023-10-28T05:36:31.178Z,14.60
2023-10-28T05:39:00.168Z,14.45
2023-10-28T05:41:26.660Z,17.00
2023-10-28T05:43:53.060Z,19.38
2023-10-28T05:46:22.687Z,15.75
2023-10-28T05:48:50.210Z,16.15
2023-10-28T05:51:17.503Z,13.32
2023-10-28T05:53:44.034Z,16.35
2023-10-28T05:56:10.643Z,18.27
2023-10-28T05:58:37.967Z,19.92
2023-10-28T06:01:04.540Z,14.45
2023-10-28T06:03:31.016Z,14.48
2023-10-28T06:05:57.391Z,14.27
2023-10-28T06:08:23.787Z,14.05
2023-10-28T06:10:50.211Z,14.25
2023-10-28T06:13:16.854Z,14.07
2023-10-28T06:15:43.239Z,14.15
2023-10-28T06:18:09.641Z,13.30
2023-10-28T06:20:36.025Z,14.45
2023-10-28T06:23:05.016Z,13.77
2023-10-28T06:25:31.435Z,13.95
2023-10-28T06:27:57.788Z,12.63
2023-10-28T06:30:24.453Z,13.77
2023-10-28T06:32:50.845Z,14.63
2023-10-28T06:35:17.722Z,13.18
2023-10-28T06:37:44.285Z,12.15
2023-10-28T06:40:10.920Z,13.13
2023-10-28T06:42:38.571Z,12.95
2023-10-28T06:45:08.945Z,13.95
2023-10-28T06:47:36.017Z,13.32
2023-10-28T06:50:07.953Z,10.27
2023-10-28T06:52:34.654Z,11.77
2023-10-28T06:55:01.367Z,13.35
2023-10-28T06:57:28.506Z,14.77
2023-10-28T06:59:55.033Z,14.38
2023-10-28T07:02:22.313Z,10.38
2023-10-28T07:04:48.810Z,12.27
2023-10-28T07:07:15.575Z,11.10
2023-10-28T07:09:42.158Z,12.25
2023-10-28T07:12:08.755Z,15.15
2023-10-28T07:14:35.377Z,14.07
2023-10-28T07:17:02.459Z,14.23
2023-10-28T07:19:29.139Z,14.82
2023-10-28T07:21:55.793Z,15.23
2023-10-28T07:24:22.177Z,14.40
2023-10-28T07:26:48.945Z,13.02
2023-10-28T07:29:15.382Z,15.27
2023-10-28T07:31:41.789Z,15.05
2023-10-28T07:34:09.014Z,15.20
2023-10-28T07:36:35.571Z,13.45
2023-10-28T07:39:04.850Z,16.58
2023-10-28T07:41:31.848Z,13.43
2023-10-28T07:43:58.419Z,13.63
2023-10-28T07:46:27.312Z,17.02
2023-10-28T07:52:27.803Z,15.40
2023-10-28T07:54:54.992Z,16.33
2023-10-28T07:57:21.353Z,13.65
2023-10-28T07:59:48.225Z,15.10
2023-10-28T08:02:16.707Z,16.73
2023-10-28T08:04:43.100Z,15.82
2023-10-28T08:07:09.461Z,15.95
2023-10-28T08:09:36.347Z,19.30
2023-10-28T08:12:05.961Z,17.70
2023-10-28T08:14:33.667Z,15.88
2023-10-28T08:17:00.152Z,16.08
2023-10-28T08:19:27.465Z,16.27
2023-10-28T08:21:53.833Z,17.02
2023-10-28T08:24:21.989Z,15.13
2023-10-28T08:26:48.461Z,14.88
2023-10-28T08:29:15.883Z,14.13
2023-10-28T08:31:42.508Z,15.85
2023-10-28T08:34:08.909Z,19.85
2023-10-28T08:36:35.980Z,15.02
2023-10-28T08:39:02.641Z,17.00
2023-10-28T08:41:29.526Z,18.30
2023-10-28T08:43:57.818Z,17.65
2023-10-28T08:46:24.613Z,19.20
2023-10-28T08:48:55.185Z,16.75
2023-10-28T08:51:22.102Z,19.90
2023-10-28T08:53:51.273Z,18.30
2023-10-28T08:56:20.696Z,17.65
2023-10-28T08:58:52.024Z,17.38
2023-10-28T09:01:20.751Z,21.77
2023-10-28T09:03:48.664Z,18.50
2023-10-28T09:06:15.521Z,17.42
2023-10-28T09:08:42.000Z,16.67
2023-10-28T09:11:08.503Z,16.65
2023-10-28T09:13:35.746Z,17.48
2023-10-28T09:16:02.299Z,18.52
2023-10-28T09:18:38.648Z,15.38
2023-10-28T09:21:06.603Z,18.63
2023-10-28T09:23:33.088Z,14.82
2023-10-28T09:25:59.466Z,17.73
2023-10-28T09:28:26.566Z,15.13
2023-10-28T09:30:53.097Z,19.27
2023-10-28T09:33:19.689Z,19.85
2023-10-28T09:35:47.431Z,21.35
2023-10-28T09:38:14.169Z,20.75
2023-10-28T09:40:40.835Z,19.30
2023-10-28T09:43:08.025Z,20.60
2023-10-28T09:45:36.679Z,19.10
2023-10-28T09:48:11.165Z,15.60
2023-10-28T09:50:45.386Z,17.55
2023-10-28T09:53:17.059Z,16.27
2023-10-28T09:58:18.858Z,18.30
2023-10-28T10:00:48.545Z,17.75
2023-10-28T10:03:56.588Z,17.90
2023-10-28T10:06:24.741Z,16.98
2023-10-28T10:08:53.324Z,14.85
2023-10-28T10:11:27.057Z,14.43
2023-10-28T10:13:56.740Z,17.58
2023-10-28T10:16:42.153Z,17.25
2023-10-28T10:19:13.392Z,18.90
2023-10-28T10:21:50.165Z,16.85
2023-10-28T10:24:18.562Z,17.58
2023-10-28T10:26:54.974Z,19.42
2023-10-28T10:29:21.547Z,19.67
2023-10-28T10:31:52.733Z,19.02
2023-10-28T10:34:34.739Z,15.48
2023-10-28T10:37:01.415Z,18.23
2023-10-28T10:39:27.910Z,17.02
2023-10-28T10:41:57.735Z,16.55
2023-10-28T10:47:03.328Z,17.90
2023-10-28T10:49:31.346Z,16.42
2023-10-28T10:52:04.660Z,17.25
2023-10-28T10:54:32.635Z,18.77
2023-10-28T10:56:59.997Z,17.80
2023-10-28T10:59:30.242Z,18.52
2023-10-28T11:02:01.696Z,21.45
2023-10-28T11:04:32.264Z,18.30
2023-10-28T11:07:01.021Z,15.48
2023-10-28T11:09:28.876Z,15.95
2023-10-28T11:11:55.411Z,16.95
2023-10-28T11:14:21.956Z,18.13
2023-10-28T11:16:48.775Z,15.70
2023-10-28T11:19:15.202Z,18.10
2023-10-28T11:21:41.969Z,20.40
2023-10-28T11:24:10.634Z,17.67
2023-10-28T11:26:38.186Z,16.73
2023-10-28T11:29:07.982Z,16.58
2023-10-28T11:31:35.456Z,17.90
2023-10-28T11:34:05.293Z,20.65
2023-10-28T11:36:34.523Z,22.90
2023-10-28T11:39:14.957Z,18.95
2023-10-28T11:41:48.179Z,21.38
2023-10-28T11:44:15.917Z,18.80
2023-10-28T11:46:42.439Z,21.02
2023-10-28T11:49:09.307Z,21.35
2023-10-28T11:51:35.716Z,20.40
2023-10-28T11:54:04.751Z,19.60
2023-10-28T11:56:34.165Z,24.92
2023-10-28T11:59:00.973Z,23.70
2023-10-28T12:01:29.451Z,27.63
2023-10-28T12:03:55.964Z,23.80
2023-10-28T12:06:30.110Z,27.45
2023-10-28T12:09:00.789Z,25.38
2023-10-28T12:11:28.534Z,25.67
2023-10-28T12:13:57.312Z,24.58
2023-10-28T12:16:24.801Z,23.23
2023-10-28T12:18:52.398Z,30.00
2023-10-28T12:21:19.199Z,24.58
2023-10-28T12:23:46.189Z,26.40
2023-10-28T12:26:12.680Z,27.58
2023-10-28T12:28:39.100Z,30.08
2023-10-28T12:31:06.003Z,32.88
2023-10-28T12:33:33.621Z,34.13
2023-10-28T12:36:01.373Z,27.73
2023-10-28T12:38:27.855Z,34.38
2023-10-28T12:40:54.381Z,32.05
2023-10-28T12:43:20.768Z,30.65
2023-10-28T12:45:47.215Z,27.17
2023-10-28T12:48:13.648Z,34.67
2023-10-28T12:50:40.385Z,34.75
2023-10-28T12:53:06.843Z,34.08
2023-10-28T12:55:33.287Z,31.38
2023-10-28T12:57:59.656Z,37.05
2023-10-28T13:00:26.272Z,35.33
2023-10-28T13:02:53.211Z,33.08
2023-10-28T13:05:19.693Z,27.80
2023-10-28T13:07:46.195Z,32.78
2023-10-28T13:10:12.592Z,31.08
2023-10-28T13:12:39.179Z,33.00
2023-10-28T13:15:05.886Z,28.27
2023-10-28T13:17:32.341Z,30.02
2023-10-28T13:19:59.168Z,30.52
2023-10-28T13:22:25.669Z,26.35
2023-10-28T13:24:52.048Z,32.83
2023-10-28T13:27:18.417Z,25.30
2023-10-28T13:29:44.911Z,26.42
2023-10-28T13:32:12.063Z,27.52
2023-10-28T13:34:39.466Z,30.50
2023-10-28T13:37:05.962Z,33.75
2023-10-28T13:39:32.380Z,27.73
2023-10-28T13:41:58.803Z,23.63
2023-10-28T13:44:25.243Z,30.15
2023-10-28T13:46:51.646Z,26.95
2023-10-28T13:49:21.567Z,27.63
2023-10-28T13:51:48.200Z,25.67
2023-10-28T13:54:14.607Z,22.45
2023-10-28T13:56:41.016Z,23.95
2023-10-28T13:59:07.933Z,25.13
2023-10-28T14:01:35.221Z,29.10
2023-10-28T14:04:01.838Z,20.02
2023-10-28T14:06:28.268Z,23.88
2023-10-28T14:08:54.623Z,25.40
2023-10-28T14:11:24.930Z,22.38
2023-10-28T14:13:51.744Z,23.13
2023-10-28T14:16:25.236Z,21.55
2023-10-28T14:18:51.742Z,19.50
2023-10-28T14:21:20.510Z,21.30
2023-10-28T14:23:50.547Z,19.35
2023-10-28T14:26:18.148Z,21.42
2023-10-28T14:28:44.988Z,19.98
2023-10-28T14:31:12.142Z,20.83
2023-10-28T14:33:38.815Z,18.70
2023-10-28T14:36:09.673Z,17.38
2023-10-28T14:38:37.853Z,16.42
2023-10-28T14:41:04.624Z,19.42
2023-10-28T14:43:31.480Z,17.92
2023-10-28T14:45:58.489Z,21.15
2023-10-28T14:48:25.271Z,15.55
2023-10-28T14:50:53.380Z,19.30
2023-10-28T14:53:20.642Z,19.10
2023-10-28T14:55:47.662Z,15.45
2023-10-28T14:58:22.170Z,13.88
2023-10-28T15:00:52.718Z,14.35
2023-10-28T15:03:20.358Z,17.85
2023-10-28T15:05:47.007Z,14.73
2023-10-28T15:08:13.465Z,14.20
2023-10-28T15:10:40.500Z,15.85
2023-10-28T15:13:07.026Z,13.40
2023-10-28T15:15:40.820Z,16.17
2023-10-28T15:18:07.355Z,15.77
2023-10-28T15:20:34.209Z,13.85
2023-10-28T15:23:01.524Z,16.00
2023-10-28T15:25:31.451Z,23.88
2023-10-28T15:27:58.205Z,15.50
2023-10-28T15:30:26.834Z,16.35
2023-10-28T15:32:53.814Z,18.08
2023-10-28T15:35:20.371Z,16.63
2023-10-28T15:37:48.421Z,17.50
2023-10-28T15:40:19.714Z,15.32
2023-10-28T15:45:13.765Z,13.85
2023-10-28T15:47:40.559Z,16.10
2023-10-28T15:50:08.201Z,13.63
2023-10-28T15:52:34.989Z,15.70
2023-10-28T15:55:01.818Z,18.75
2023-10-28T15:57:28.309Z,16.42
2023-10-28T15:59:54.723Z,16.60
2023-10-28T16:02:21.232Z,17.75
2023-10-28T16:04:47.827Z,16.02
2023-10-28T16:07:15.019Z,15.68
2023-10-28T16:09:41.641Z,14.20
2023-10-28T16:12:08.675Z,14.35
2023-10-28T16:14:35.120Z,14.70
2023-10-28T16:17:01.910Z,22.50
2023-10-28T16:19:28.729Z,15.43
2023-10-28T16:21:55.112Z,16.05
2023-10-28T16:24:21.487Z,13.77
2023-10-28T16:26:48.803Z,16.25
2023-10-28T16:29:16.171Z,14.40
2023-10-28T16:31:43.220Z,14.65
2023-10-28T16:34:09.713Z,15.65
2023-10-28T16:36:37.239Z,15.10
2023-10-28T16:39:04.451Z,16.73
2023-10-28T16:41:30.972Z,12.73
2023-10-28T16:43:59.763Z,15.93
2023-10-28T16:46:26.175Z,10.85
2023-10-28T16:48:52.652Z,13.43
2023-10-28T16:51:20.580Z,14.07
2023-10-28T16:53:47.233Z,12.05
2023-10-28T16:56:16.604Z,14.18
2023-10-28T16:58:43.234Z,12.43
2023-10-28T17:01:09.787Z,11.73
2023-10-28T17:03:36.992Z,10.77
2023-10-28T17:06:06.316Z,12.85
2023-10-28T17:08:33.455Z,17.75
2023-10-28T17:11:00.816Z,19.55
2023-10-28T17:13:27.339Z,13.18
2023-10-28T17:15:53.796Z,16.83
2023-10-28T17:18:20.852Z,16.08
2023-10-28T17:20:47.344Z,16.67
2023-10-28T17:23:15.112Z,13.15
2023-10-28T17:25:41.582Z,15.38
2023-10-28T17:28:08.025Z,12.55
2023-10-28T17:30:36.005Z,10.88
2023-10-28T17:33:02.889Z,11.60
2023-10-28T17:35:29.295Z,11.68
2023-10-28T17:37:55.714Z,10.23
2023-10-28T17:40:23.077Z,9.38
2023-10-28T17:42:49.601Z,11.35
2023-10-28T17:45:16.165Z,12.00
2023-10-28T17:47:42.615Z,10.77
2023-10-28T17:50:09.288Z,13.05
2023-10-28T17:52:35.867Z,14.75
2023-10-28T17:55:03.253Z,15.68
2023-10-28T17:57:29.676Z,16.33
2023-10-28T17:59:56.113Z,17.25
2023-10-28T18:02:22.767Z,15.85
2023-10-28T18:04:49.240Z,14.05
2023-10-28T18:07:15.639Z,16.45
2023-10-28T18:09:42.111Z,14.25
2023-10-28T18:12:10.773Z,14.50
2023-10-28T18:14:38.051Z,14.52
2023-10-28T18:17:05.069Z,16.85
2023-10-28T18:19:32.171Z,13.60
2023-10-28T18:21:58.521Z,12.50
2023-10-28T18:24:24.912Z,16.88
2023-10-28T18:26:52.681Z,13.27
2023-10-28T18:29:19.778Z,14.73
2023-10-28T18:31:47.137Z,17.52
2023-10-28T18:34:13.566Z,13.93
2023-10-28T18:36:41.557Z,15.02
2023-10-28T18:39:09.889Z,16.23
2023-10-28T18:41:40.108Z,15.45
2023-10-28T18:44:07.922Z,14.25
2023-10-28T18:46:34.350Z,14.93
2023-10-28T18:49:04.045Z,15.18
2023-10-28T18:51:30.413Z,16.58
2023-10-28T18:53:56.811Z,13.43
2023-10-28T18:56:25.568Z,13.73
2023-10-28T18:58:54.974Z,14.35
2023-10-28T19:01:21.559Z,15.80
2023-10-28T19:03:51.781Z,15.38
2023-10-28T19:06:18.993Z,13.98
2023-10-28T19:08:46.562Z,15.73
2023-10-28T19:11:13.467Z,15.40
2023-10-28T19:13:39.905Z,15.13
2023-10-28T19:16:09.891Z,16.70
2023-10-28T19:18:37.073Z,13.95
2023-10-28T19:21:03.820Z,17.20
2023-10-28T19:23:30.481Z,15.13
2023-10-28T19:25:57.017Z,15.38
2023-10-28T19:28:23.483Z,15.30
2023-10-28T19:30:49.986Z,17.05
2023-10-28T19:33:16.537Z,14.60
2023-10-28T19:35:43.489Z,14.48
2023-10-28T19:38:10.225Z,16.10
2023-10-28T19:40:37.337Z,12.43
2023-10-28T19:43:03.807Z,13.93
2023-10-28T19:45:30.215Z,12.90
2023-10-28T19:47:57.040Z,17.58
2023-10-28T19:50:25.508Z,18.80
2023-10-28T19:52:52.385Z,16.58
2023-10-28T19:55:18.887Z,19.42
2023-10-28T19:57:45.819Z,16.23
2023-10-28T20:00:13.384Z,14.80
2023-10-28T20:02:41.124Z,16.90
2023-10-28T20:05:08.577Z,18.02
2023-10-28T20:07:36.235Z,18.98
2023-10-28T20:10:08.211Z,15.75
2023-10-28T20:12:35.521Z,16.30
2023-10-28T20:15:04.803Z,16.52
2023-10-28T20:17:31.884Z,21.10
2023-10-28T20:19:58.607Z,15.48
2023-10-28T20:22:26.787Z,16.02
2023-10-28T20:24:54.500Z,16.02
2023-10-28T20:27:21.418Z,17.27
2023-10-28T20:29:48.772Z,17.88
2023-10-28T20:32:15.724Z,16.25
2023-10-28T20:34:42.202Z,16.40
2023-10-28T20:37:08.653Z,16.38
2023-10-28T20:39:36.050Z,14.23
2023-10-28T20:42:02.560Z,14.77
2023-10-28T20:44:30.604Z,16.85
2023-10-28T20:46:58.955Z,13.57
2023-10-28T20:49:25.657Z,15.60
2023-10-28T20:51:52.146Z,14.88
2023-10-28T20:54:18.551Z,12.45
2023-10-28T20:56:45.116Z,13.00
2023-10-28T20:59:11.828Z,12.70
2023-10-28T21:01:38.334Z,14.55
2023-10-28T21:04:05.360Z,13.25
2023-10-28T21:06:31.865Z,17.65
2023-10-28T21:08:58.296Z,10.50
2023-10-28T21:11:24.892Z,11.27
2023-10-28T21:13:51.754Z,13.82
2023-10-28T21:16:18.402Z,10.85
2023-10-28T21:18:45.057Z,9.45
2023-10-28T21:21:11.580Z,10.95
2023-10-28T21:23:38.171Z,11.50
2023-10-28T21:26:05.118Z,10.15
2023-10-28T21:28:32.572Z,11.38
2023-10-28T21:31:02.640Z,11.50
2023-10-28T21:33:29.267Z,11.55
2023-10-28T21:35:55.905Z,12.50
2023-10-28T21:38:23.414Z,10.23
2023-10-28T21:40:50.227Z,13.52
2023-10-28T21:43:16.684Z,11.27
2023-10-28T21:45:58.380Z,10.65
2023-10-28T21:48:26.438Z,12.05
2023-10-28T21:50:53.279Z,12.27
2023-10-28T21:53:19.922Z,11.32
2023-10-28T21:55:47.175Z,9.25
2023-10-28T21:58:14.305Z,12.45
2023-10-28T22:00:40.953Z,10.65
2023-10-28T22:03:14.246Z,12.88
2023-10-28T22:05:41.520Z,13.38
2023-10-28T22:08:11.811Z,10.40
2023-10-28T22:10:38.748Z,9.93
2023-10-28T22:13:06.450Z,9.45
2023-10-28T22:15:32.899Z,9.98
2023-10-28T22:17:59.836Z,11.02
2023-10-28T22:20:26.491Z,11.88
2023-10-28T22:22:52.991Z,11.05
2023-10-28T22:25:19.704Z,9.80
2023-10-28T22:27:46.799Z,8.63
2023-10-28T22:30:13.969Z,8.30
2023-10-28T22:32:40.945Z,10.45
2023-10-28T22:35:09.230Z,8.68
2023-10-28T22:37:35.868Z,14.15
2023-10-28T22:40:05.283Z,10.60
2023-10-28T22:42:33.041Z,10.77
2023-10-28T22:45:00.294Z,10.70
2023-10-28T22:47:27.639Z,10.23
2023-10-28T22:49:54.061Z,8.45
2023-10-28T22:52:20.569Z,10.00
2023-10-28T22:54:47.113Z,14.20
2023-10-28T22:57:14.129Z,13.05
2023-10-28T22:59:40.592Z,10.13
2023-10-28T23:02:07.974Z,9.23
2023-10-28T23:04:34.508Z,14.07
2023-10-28T23:07:01.254Z,9.20
2023-10-28T23:09:27.887Z,11.40
2023-10-28T23:11:54.404Z,10.02
2023-10-28T23:14:21.330Z,10.27
2023-10-28T23:16:47.805Z,9.82
2023-10-28T23:19:14.321Z,9.73
2023-10-28T23:21:40.723Z,10.35
2023-10-28T23:24:07.249Z,11.13
2023-10-28T23:26:33.767Z,10.43
2023-10-28T23:29:00.166Z,13.98
2023-10-28T23:31:26.586Z,11.10
2023-10-28T23:33:53.024Z,10.23
2023-10-28T23:36:19.862Z,13.65
2023-10-28T23:38:46.868Z,12.20
2023-10-28T23:41:13.256Z,11.10
2023-10-28T23:43:39.995Z,14.02
2023-10-28T23:46:09.017Z,10.93
2023-10-28T23:48:36.517Z,11.13
2023-10-28T23:51:03.050Z,9.73
2023-10-28T23:53:29.500Z,12.02
2023-10-28T23:55:56.724Z,12.20
2023-10-28T23:58:23.216Z,13.63
